Time;durP1;ratioP1;P1;durP2;ratioP2;P2;SDS_P1;SDS_P2;PMS_P1;PMS_P2;Temp;Humidity;BMP_temperature;BMP_pressure;BME280_temperature;BME280_humidity;BME280_pressure;Samples;Min_cycle;Max_cycle;Signal;HPM_P1;HPM_P2
2022/07/19 00:00:59;;;;;;;2.88;2.58;;;18.60;99.90;;;;;;4836916;29;20081;-90
2022/07/19 00:03:25;;;;;;;4.70;3.15;;;18.60;99.90;;;;;;4853503;29;20092;-90
2022/07/19 00:05:50;;;;;;;5.03;2.47;;;17.70;99.90;;;;;;4835518;29;20103;-90
2022/07/19 00:08:16;;;;;;;10.15;2.95;;;18.60;99.90;;;;;;4858224;29;20052;-90
2022/07/19 00:10:42;;;;;;;4.35;2.97;;;18.60;99.90;;;;;;4839172;29;20042;-90
2022/07/19 00:13:08;;;;;;;2.33;2.00;;;18.50;99.90;;;;;;4860793;29;20052;-90
2022/07/19 00:15:36;;;;;;;4.68;2.53;;;18.50;99.90;;;;;;4836850;29;20056;-91
2022/07/19 00:18:05;;;;;;;3.33;2.42;;;18.40;99.90;;;;;;4846629;29;20098;-89
2022/07/19 00:20:31;;;;;;;2.72;2.13;;;19.30;99.90;;;;;;4849632;29;20491;-90
2022/07/19 00:23:01;;;;;;;3.67;2.92;;;18.40;99.90;;;;;;4855563;29;20068;-90
2022/07/19 00:25:27;;;;;;;4.25;3.28;;;18.30;99.90;;;;;;4839401;29;20049;-90
2022/07/19 00:27:53;;;;;;;3.15;2.40;;;18.30;99.90;;;;;;4846050;29;20055;-90
2022/07/19 00:30:21;;;;;;;4.57;2.67;;;18.30;99.90;;;;;;4849563;29;20045;-90
2022/07/19 00:32:49;;;;;;;2.90;2.25;;;18.20;99.90;;;;;;4827824;29;20089;-90
2022/07/19 00:35:18;;;;;;;2.88;2.25;;;18.30;99.90;;;;;;4856682;29;20081;-91
2022/07/19 00:37:44;;;;;;;4.65;2.92;;;18.20;99.90;;;;;;4844083;29;20059;-90
2022/07/19 00:40:10;;;;;;;3.45;2.65;;;18.10;99.90;;;;;;4853249;29;20053;-90
2022/07/19 00:42:38;;;;;;;;;;;17.30;99.90;;;;;;4840416;29;20055;-92
2022/07/19 00:45:04;;;;;;;;;;;18.10;99.90;;;;;;4842380;29;20272;-90
2022/07/19 00:47:30;;;;;;;4.75;2.40;;;18.00;99.90;;;;;;4836483;29;19963;-90
2022/07/19 00:49:59;;;;;;;3.00;2.40;;;18.00;99.90;;;;;;4847643;29;20504;-90
2022/07/19 00:52:28;;;;;;;4.28;2.78;;;18.00;99.90;;;;;;4855349;29;20579;-92
2022/07/19 00:54:57;;;;;;;4.40;2.38;;;18.00;99.90;;;;;;4848668;29;20049;-90
2022/07/19 00:57:24;;;;;;;4.80;2.92;;;18.00;99.90;;;;;;4836790;29;20069;-90
2022/07/19 00:59:52;;;;;;;;;;;18.00;99.90;;;;;;4848718;29;20493;-91
2022/07/19 01:02:18;;;;;;;4.82;2.15;;;17.90;99.90;;;;;;4837694;29;19996;-90
2022/07/19 01:04:44;;;;;;;4.40;2.80;;;17.80;99.90;;;;;;4840844;29;20052;-91
2022/07/19 01:07:10;;;;;;;4.55;2.70;;;17.90;99.90;;;;;;4837364;29;20049;-92
2022/07/19 01:09:40;;;;;;;4.07;2.33;;;17.80;99.90;;;;;;4833148;29;20092;-90
2022/07/19 01:12:06;;;;;;;3.38;2.67;;;17.80;99.90;;;;;;4837130;29;20133;-90
2022/07/19 01:14:35;;;;;;;;;;;17.80;99.90;;;;;;4843682;29;20052;-90
2022/07/19 01:17:07;;;;;;;3.58;2.42;;;17.80;99.90;;;;;;4834651;29;19928;-91
2022/07/19 01:19:40;;;;;;;4.40;2.60;;;17.00;99.90;;;;;;4854354;29;20049;-90
2022/07/19 01:22:08;;;;;;;3.03;2.30;;;17.70;99.90;;;;;;4834830;29;20057;-90
2022/07/19 01:24:37;;;;;;;4.18;2.83;;;17.70;99.90;;;;;;4849562;29;20053;-90
2022/07/19 01:27:05;;;;;;;3.78;2.60;;;17.60;99.90;;;;;;4834011;29;20059;-90
2022/07/19 01:29:32;;;;;;;2.40;1.83;;;17.60;99.90;;;;;;4853779;29;20380;-91
2022/07/19 01:32:00;;;;;;;3.92;2.95;;;17.60;99.90;;;;;;4847400;29;20064;-90
2022/07/19 01:34:26;;;;;;;3.10;2.30;;;17.60;99.90;;;;;;4853845;29;20045;-90
2022/07/19 01:36:52;;;;;;;3.55;2.92;;;17.50;99.90;;;;;;4853488;29;20064;-90
2022/07/19 01:39:17;;;;;;;4.55;2.80;;;17.60;99.90;;;;;;4856013;29;20109;-90
2022/07/19 01:41:43;;;;;;;2.88;2.55;;;17.50;99.90;;;;;;4839004;29;20349;-91
2022/07/19 01:44:09;;;;;;;5.75;3.50;;;17.50;99.90;;;;;;4856526;29;20049;-90
2022/07/19 01:46:35;;;;;;;4.35;2.17;;;17.50;99.90;;;;;;4852563;29;20129;-92
2022/07/19 01:49:01;;;;;;;3.78;2.50;;;17.40;99.90;;;;;;4862956;29;20072;-90
2022/07/19 01:51:26;;;;;;;3.42;2.45;;;17.40;99.90;;;;;;4842050;29;20118;-90
2022/07/19 01:53:55;;;;;;;2.58;2.10;;;17.40;99.90;;;;;;4836034;29;20381;-89
2022/07/19 01:56:20;;;;;;;3.97;2.65;;;17.60;99.90;;;;;;4848969;29;20037;-91
2022/07/19 01:58:49;;;;;;;6.05;3.25;;;17.30;99.90;;;;;;4846338;29;20108;-93
2022/07/19 02:01:18;;;;;;;4.00;3.45;;;17.30;99.90;;;;;;4855237;29;20388;-90
2022/07/19 02:03:44;;;;;;;3.65;2.28;;;17.10;99.90;;;;;;4861429;29;20546;-91
2022/07/19 02:06:12;;;;;;;4.78;2.97;;;17.20;99.90;;;;;;4856575;29;20057;-90
2022/07/19 02:08:45;;;;;;;5.00;2.47;;;17.20;99.90;;;;;;4838867;29;20549;-90
2022/07/19 02:13:58;;;;;;;6.27;3.20;;;17.20;99.90;;;;;;4846139;29;20060;-90
2022/07/19 02:16:26;;;;;;;3.88;2.85;;;17.20;99.90;;;;;;4844612;29;20050;-90
2022/07/19 02:18:55;;;;;;;3.38;2.72;;;17.10;99.90;;;;;;4848512;29;20119;-91
2022/07/19 02:21:21;;;;;;;2.60;2.40;;;16.40;99.90;;;;;;4861344;29;20138;-91
2022/07/19 02:23:49;;;;;;;3.38;2.38;;;17.10;99.90;;;;;;4852698;29;20049;-91
2022/07/19 02:26:16;;;;;;;3.70;2.58;;;17.60;99.90;;;;;;4838126;29;20060;-91
2022/07/19 02:28:42;;;;;;;3.83;3.00;;;17.00;99.90;;;;;;4839302;29;20049;-90
2022/07/19 02:31:11;;;;;;;3.45;2.72;;;17.00;99.90;;;;;;4859747;29;20041;-90
2022/07/19 02:33:39;;;;;;;4.20;2.80;;;16.10;99.90;;;;;;4863899;29;20146;-90
2022/07/19 02:36:05;;;;;;;3.38;2.83;;;17.00;99.90;;;;;;4833977;29;20118;-92
2022/07/19 02:38:32;;;;;;;3.70;3.08;;;16.90;99.90;;;;;;4830349;29;20045;-90
2022/07/19 02:40:58;;;;;;;;;;;16.90;99.90;;;;;;4838173;29;20131;-90
2022/07/19 02:43:23;;;;;;;2.35;2.15;;;16.90;99.90;;;;;;4845082;29;20010;-90
2022/07/19 02:45:49;;;;;;;5.32;2.42;;;16.80;99.90;;;;;;4861393;29;20039;-90
2022/07/19 02:48:15;;;;;;;3.00;2.30;;;16.80;99.90;;;;;;4858194;29;20049;-89
2022/07/19 02:50:41;;;;;;;5.93;2.83;;;16.70;99.90;;;;;;4835227;29;20056;-91
2022/07/19 02:53:09;;;;;;;5.30;3.15;;;16.80;99.90;;;;;;4858573;29;20136;-89
2022/07/19 02:55:37;;;;;;;6.07;4.32;;;16.70;99.90;;;;;;4858740;29;20084;-90
2022/07/19 02:58:03;;;;;;;6.05;3.65;;;16.70;99.90;;;;;;4839180;29;20069;-90
2022/07/19 03:00:32;;;;;;;6.72;4.85;;;16.70;99.90;;;;;;4842922;29;20064;-90
2022/07/19 03:05:47;;;;;;;6.03;5.22;;;16.70;99.90;;;;;;4852547;29;20498;-90
2022/07/19 03:08:18;;;;;;;20.42;6.15;;;17.50;99.90;;;;;;4840664;29;20445;-90
2022/07/19 03:10:44;;;;;;;15.60;8.50;;;16.60;99.90;;;;;;4839355;29;20504;-90
2022/07/19 03:13:10;;;;;;;19.92;10.52;;;16.60;99.90;;;;;;4844366;29;20454;-91
2022/07/19 03:15:36;;;;;;;21.90;11.90;;;16.60;99.90;;;;;;4837974;29;20077;-90
2022/07/19 03:18:03;;;;;;;24.48;14.05;;;16.60;99.90;;;;;;4838366;29;20141;-90
2022/07/19 03:20:29;;;;;;;29.33;15.50;;;16.60;99.90;;;;;;4834230;29;20053;-90
2022/07/19 03:22:55;;;;;;;28.92;15.85;;;16.60;99.90;;;;;;4847588;29;20053;-90
2022/07/19 03:25:24;;;;;;;27.02;13.07;;;16.50;99.90;;;;;;4860289;29;20100;-90
2022/07/19 03:27:50;;;;;;;30.90;15.07;;;16.50;99.90;;;;;;4857504;29;20060;-90
2022/07/19 03:30:15;;;;;;;33.13;15.88;;;16.50;99.90;;;;;;4850133;29;20044;-90
2022/07/19 03:32:41;;;;;;;21.63;14.13;;;16.50;99.90;;;;;;4835397;29;20049;-90
2022/07/19 03:35:11;;;;;;;18.35;12.52;;;16.40;99.90;;;;;;4835901;29;20722;-90
2022/07/19 03:37:36;;;;;;;16.55;10.15;;;16.60;99.90;;;;;;4858024;29;20077;-91
2022/07/19 03:40:03;;;;;;;15.95;9.02;;;16.40;99.90;;;;;;4855851;29;20483;-91
2022/07/19 03:42:29;;;;;;;10.15;6.25;;;16.50;99.90;;;;;;4859880;29;20089;-90
2022/07/19 03:44:55;;;;;;;12.85;6.70;;;16.50;99.90;;;;;;4820814;29;20131;-91
2022/07/19 03:47:21;;;;;;;11.27;7.35;;;16.50;99.90;;;;;;4833693;29;20075;-92
2022/07/19 03:49:47;;;;;;;9.00;6.05;;;16.40;99.90;;;;;;4837802;29;20086;-91
2022/07/19 03:52:13;;;;;;;9.65;6.30;;;16.40;99.90;;;;;;4837531;29;20045;-91
2022/07/19 03:54:40;;;;;;;15.05;7.43;;;16.40;99.90;;;;;;4848806;29;20137;-91
2022/07/19 03:57:10;;;;;;;9.77;5.47;;;16.40;99.90;;;;;;4854462;29;20052;-91
2022/07/19 03:59:36;;;;;;;7.70;5.57;;;16.40;99.90;;;;;;4846913;29;20049;-90
2022/07/19 04:02:02;;;;;;;8.20;5.70;;;16.40;99.90;;;;;;4831539;29;20416;-92
2022/07/19 04:04:28;;;;;;;10.60;5.85;;;16.40;99.90;;;;;;4856857;29;20045;-90
2022/07/19 04:06:53;;;;;;;12.00;6.73;;;16.40;99.90;;;;;;4860814;29;20055;-91
2022/07/19 04:09:19;;;;;;;11.10;6.47;;;16.40;99.90;;;;;;4855472;29;20373;-91
2022/07/19 04:11:45;;;;;;;13.03;6.40;;;16.40;99.90;;;;;;4836795;29;20310;-90
2022/07/19 04:14:13;;;;;;;11.83;8.00;;;16.30;99.90;;;;;;4844239;29;20331;-90
2022/07/19 04:16:41;;;;;;;10.00;6.75;;;16.40;99.90;;;;;;4849462;29;20337;-90
2022/07/19 04:19:10;;;;;;;10.57;6.97;;;16.40;99.90;;;;;;4835830;29;20136;-91
2022/07/19 04:21:35;;;;;;;7.63;6.40;;;15.70;99.90;;;;;;4839543;29;20045;-90
2022/07/19 04:24:01;;;;;;;12.60;8.33;;;16.40;99.90;;;;;;4833734;29;20049;-90
2022/07/19 04:26:30;;;;;;;12.27;7.50;;;16.50;99.90;;;;;;4854650;29;20060;-90
2022/07/19 04:28:55;;;;;;;12.93;7.53;;;16.50;99.90;;;;;;4836530;29;20053;-90
2022/07/19 04:31:21;;;;;;;11.00;7.65;;;16.50;99.90;;;;;;4841278;29;20105;-90
2022/07/19 04:33:47;;;;;;;11.47;7.57;;;16.50;99.90;;;;;;4850822;29;20061;-92
2022/07/19 04:36:18;;;;;;;9.63;6.88;;;17.10;99.90;;;;;;4836871;29;20080;-90
2022/07/19 04:38:49;;;;;;;13.00;7.45;;;16.60;99.90;;;;;;4848703;29;20090;-90
2022/07/19 04:41:17;;;;;;;9.07;6.75;;;16.60;99.90;;;;;;4832986;29;20046;-91
2022/07/19 04:43:43;;;;;;;11.38;5.85;;;16.30;99.90;;;;;;4854331;29;20048;-90
2022/07/19 04:46:09;;;;;;;8.43;5.53;;;16.70;99.90;;;;;;4837734;29;20397;-93
2022/07/19 04:48:37;;;;;;;10.67;5.73;;;16.70;99.90;;;;;;4835622;29;20649;-91
2022/07/19 04:51:02;;;;;;;6.07;5.30;;;16.80;99.90;;;;;;4858948;29;20298;-91
2022/07/19 04:53:30;;;;;;;8.93;5.07;;;16.90;99.90;;;;;;4827931;29;20512;-90
2022/07/19 04:55:56;;;;;;;12.32;5.57;;;16.90;99.90;;;;;;4839310;29;20052;-90
2022/07/19 04:58:25;;;;;;;8.38;5.28;;;17.00;99.90;;;;;;4833812;29;20049;-91
2022/07/19 05:00:50;;;;;;;10.13;5.47;;;17.10;99.90;;;;;;4837563;29;20049;-90
2022/07/19 05:03:16;;;;;;;7.60;4.77;;;17.10;99.90;;;;;;4837822;29;20075;-90
2022/07/19 05:05:44;;;;;;;8.80;5.70;;;17.20;99.90;;;;;;4849899;29;20657;-90
2022/07/19 05:08:10;;;;;;;5.43;3.97;;;17.30;99.90;;;;;;4850400;29;20060;-94
2022/07/19 05:10:36;;;;;;;12.93;4.80;;;17.50;99.90;;;;;;4842517;29;20053;-90
2022/07/19 05:13:05;;;;;;;7.60;5.05;;;17.30;99.90;;;;;;4865163;29;20132;-90
2022/07/19 05:15:30;;;;;;;9.15;4.38;;;17.80;99.90;;;;;;4856636;29;20276;-91
2022/07/19 05:17:56;;;;;;;6.47;4.07;;;17.90;99.90;;;;;;4852155;29;20037;-90
2022/07/19 05:20:22;;;;;;;8.82;5.43;;;18.00;99.90;;;;;;4839384;29;20075;-91
2022/07/19 05:22:49;;;;;;;9.27;4.80;;;18.20;99.90;;;;;;4856314;29;20389;-91
2022/07/19 05:25:17;;;;;;;8.52;5.05;;;18.40;99.90;;;;;;4850472;29;20605;-91
2022/07/19 05:27:43;;;;;;;8.27;6.07;;;18.60;99.90;;;;;;4860400;29;20045;-91
2022/07/19 05:30:12;;;;;;;6.93;4.45;;;18.80;99.90;;;;;;4853185;29;20044;-91
2022/07/19 05:32:38;;;;;;;6.30;4.40;;;18.90;99.90;;;;;;4841165;29;20057;-90
2022/07/19 05:35:05;;;;;;;4.07;3.55;;;19.10;99.90;;;;;;4849013;29;20500;-90
2022/07/19 05:37:30;;;;;;;5.88;3.28;;;19.20;99.90;;;;;;4860037;29;20060;-90
2022/07/19 05:39:56;;;;;;;7.05;3.40;;;19.40;99.90;;;;;;4843760;29;20049;-90
2022/07/19 05:42:22;;;;;;;4.22;3.08;;;19.60;99.90;;;;;;4837695;29;20110;-90
2022/07/19 05:44:50;;;;;;;4.45;3.40;;;19.70;99.90;;;;;;4848559;29;20045;-90
2022/07/19 05:47:17;;;;;;;5.95;3.10;;;19.90;99.90;;;;;;4860947;29;20044;-92
2022/07/19 05:49:43;;;;;;;4.60;3.88;;;20.00;99.90;;;;;;4853283;29;20105;-90
2022/07/19 05:52:09;;;;;;;5.82;2.95;;;20.20;99.90;;;;;;4853164;29;20053;-86
2022/07/19 05:54:35;;;;;;;3.75;3.30;;;20.40;99.90;;;;;;4851484;29;20697;-86
2022/07/19 05:57:01;;;;;;;5.03;2.65;;;20.70;99.90;;;;;;4874385;29;20136;-86
2022/07/19 05:59:26;;;;;;;2.80;2.58;;;20.90;99.90;;;;;;4854317;29;20132;-86
2022/07/19 06:01:52;;;;;;;5.80;2.75;;;21.20;99.90;;;;;;4840296;29;20106;-85
2022/07/19 06:04:18;;;;;;;3.95;2.80;;;21.40;99.90;;;;;;4837092;29;20044;-91
2022/07/19 06:06:44;;;;;;;5.82;3.55;;;21.60;99.90;;;;;;4863122;29;20112;-86
2022/07/19 06:09:11;;;;;;;4.60;2.47;;;21.70;99.90;;;;;;4863153;29;20415;-86
2022/07/19 06:11:39;;;;;;;4.63;3.25;;;21.90;99.90;;;;;;4836708;29;20578;-86
2022/07/19 06:14:08;;;;;;;5.75;2.92;;;21.90;99.90;;;;;;4857874;29;20072;-86
2022/07/19 06:16:35;;;;;;;6.10;3.08;;;21.90;99.90;;;;;;4835735;29;20053;-86
2022/07/19 06:19:01;;;;;;;3.85;2.55;;;21.90;99.90;;;;;;4869683;29;20054;-86
2022/07/19 06:21:27;;;;;;;3.67;2.50;;;21.90;99.90;;;;;;4843963;29;21459;-88
2022/07/19 06:23:53;;;;;;;3.70;2.20;;;22.00;99.90;;;;;;4825026;29;20050;-87
2022/07/19 06:26:18;;;;;;;3.25;2.65;;;22.10;99.90;;;;;;4866455;29;20038;-87
2022/07/19 06:28:44;;;;;;;2.38;2.17;;;22.20;99.90;;;;;;4859332;29;20076;-86
2022/07/19 06:31:11;;;;;;;7.13;2.97;;;22.30;99.90;;;;;;4849012;29;20084;-86
2022/07/19 06:33:45;;;;;;;5.80;2.97;;;22.50;99.90;;;;;;4871617;29;20370;-89
2022/07/19 06:36:11;;;;;;;6.10;3.00;;;22.60;99.90;;;;;;4864020;29;20049;-93
2022/07/19 06:38:42;;;;;;;3.45;2.33;;;22.70;99.90;;;;;;4837704;29;20116;-89
2022/07/19 06:41:11;;;;;;;3.78;3.03;;;22.70;99.90;;;;;;4840351;29;20056;-84
2022/07/19 06:43:38;;;;;;;4.40;2.88;;;22.80;99.90;;;;;;4845392;29;20048;-84
2022/07/19 06:46:04;;;;;;;3.15;2.67;;;22.90;99.90;;;;;;4856224;29;20522;-86
2022/07/19 06:48:30;;;;;;;3.67;2.67;;;23.00;99.90;;;;;;4853877;29;20076;-85
2022/07/19 06:50:56;;;;;;;5.70;2.85;;;23.00;99.90;;;;;;4854761;29;20049;-85
2022/07/19 06:53:21;;;;;;;4.85;3.15;;;23.10;99.90;;;;;;4855843;29;20056;-87
2022/07/19 06:55:47;;;;;;;8.13;2.85;;;23.10;99.90;;;;;;4827456;29;20074;-86
2022/07/19 06:58:13;;;;;;;4.65;3.00;;;23.20;99.90;;;;;;4878376;29;20071;-86
2022/07/19 07:00:39;;;;;;;5.30;2.60;;;23.20;99.90;;;;;;4837229;29;20129;-86
2022/07/19 07:03:05;;;;;;;4.13;2.58;;;23.20;99.90;;;;;;4870376;29;20136;-86
2022/07/19 07:05:31;;;;;;;4.70;2.72;;;23.30;99.90;;;;;;4835834;29;20100;-87
2022/07/19 07:07:57;;;;;;;3.03;2.40;;;23.40;99.90;;;;;;4850024;29;20124;-85
2022/07/19 07:10:22;;;;;;;4.57;2.50;;;23.50;99.90;;;;;;4855559;29;20132;-86
2022/07/19 07:12:49;;;;;;;8.90;3.08;;;23.60;99.90;;;;;;4847337;29;20049;-87
2022/07/19 07:15:15;;;;;;;4.32;2.88;;;23.70;99.90;;;;;;4836512;29;20041;-87
2022/07/19 07:17:41;;;;;;;;;;;23.80;99.90;;;;;;4835960;29;20053;-86
2022/07/19 07:20:07;;;;;;;4.30;2.15;;;23.80;99.90;;;;;;4833635;29;19923;-87
2022/07/19 07:22:34;;;;;;;5.32;2.88;;;23.80;99.90;;;;;;4855610;29;20140;-86
2022/07/19 07:25:00;;;;;;;3.90;2.20;;;23.90;99.90;;;;;;4858999;29;20520;-86
2022/07/19 07:27:26;;;;;;;3.85;2.50;;;24.00;99.90;;;;;;4858984;29;20106;-88
2022/07/19 07:29:52;;;;;;;4.72;2.88;;;24.10;99.90;;;;;;4856900;29;20049;-87
2022/07/19 07:32:18;;;;;;;3.10;2.80;;;24.20;99.90;;;;;;4850672;29;20529;-86
2022/07/19 07:34:44;;;;;;;2.95;2.53;;;24.30;99.90;;;;;;4854089;29;20058;-87
2022/07/19 07:37:10;;;;;;;;;;;24.40;99.90;;;;;;4849512;29;20373;-84
2022/07/19 07:39:36;;;;;;;6.82;2.30;;;24.50;99.90;;;;;;4874364;29;19931;-84
2022/07/19 07:42:03;;;;;;;4.45;3.03;;;24.60;99.90;;;;;;4868193;29;20052;-83
2022/07/19 07:44:29;;;;;;;4.03;2.33;;;24.70;99.90;;;;;;4876505;29;20120;-88
2022/07/19 07:46:55;;;;;;;;;;;24.70;99.90;;;;;;4860039;29;20040;-86
2022/07/19 07:49:21;;;;;;;3.17;2.08;;;24.90;99.90;;;;;;4862390;29;19931;-85
2022/07/19 07:51:47;;;;;;;3.33;2.40;;;25.00;99.90;;;;;;4829378;29;20042;-86
2022/07/19 07:54:13;;;;;;;3.50;2.28;;;25.10;99.90;;;;;;4833620;29;20121;-85
2022/07/19 07:56:38;;;;;;;2.28;2.08;;;25.20;99.90;;;;;;4844024;29;20042;-86
2022/07/19 07:59:04;;;;;;;3.33;2.47;;;25.40;99.90;;;;;;4860982;29;20056;-91
2022/07/19 08:01:30;;;;;;;;;;;25.40;99.90;;;;;;4854776;29;20056;-89
2022/07/19 08:03:56;;;;;;;3.88;2.17;;;25.50;99.90;;;;;;4856072;29;20022;-87
2022/07/19 08:06:22;;;;;;;2.05;1.85;;;25.60;99.90;;;;;;4844809;29;20053;-87
2022/07/19 08:08:51;;;;;;;3.42;2.10;;;25.70;99.90;;;;;;4847098;29;20042;-89
2022/07/19 08:11:16;;;;;;;4.00;2.20;;;25.80;99.90;;;;;;4844163;29;20052;-88
2022/07/19 08:13:42;;;;;;;4.82;2.85;;;25.90;99.90;;;;;;4843215;29;20116;-88
2022/07/19 08:16:07;;;;;;;;;;;25.90;99.90;;;;;;4860143;29;20088;-88
2022/07/19 08:18:33;;;;;;;3.10;1.88;;;26.00;99.90;;;;;;4844294;29;19924;-90
2022/07/19 08:20:59;;;;;;;;;;;26.00;99.90;;;;;;4844629;29;20102;-88
2022/07/19 08:23:25;;;;;;;3.03;1.70;;;26.10;99.90;;;;;;4844274;29;19931;-88
2022/07/19 08:25:51;;;;;;;;;;;26.10;99.90;;;;;;4829365;29;20520;-88
2022/07/19 08:28:16;;;;;;;3.70;1.67;;;26.20;99.90;;;;;;4844275;29;19975;-88
2022/07/19 08:30:42;;;;;;;;;;;26.20;99.90;;;;;;4844005;29;20046;-88
2022/07/19 08:33:09;;;;;;;3.75;1.60;;;26.20;99.90;;;;;;4848898;29;19927;-88
2022/07/19 08:35:36;;;;;;;3.92;1.90;;;26.20;99.90;;;;;;4861978;29;20193;-89
2022/07/19 08:38:02;;;;;;;4.00;1.55;;;26.30;99.90;;;;;;4847172;29;20049;-88
2022/07/19 08:40:27;;;;;;;;;;;26.40;99.90;;;;;;4832251;29;20516;-88
2022/07/19 08:42:56;;;;;;;4.90;1.67;;;26.50;99.90;;;;;;4828300;29;19931;-88
2022/07/19 08:45:23;;;;;;;4.35;1.92;;;26.60;99.90;;;;;;4859635;29;20046;-88
2022/07/19 08:47:48;;;;;;;;;;;26.60;99.90;;;;;;4843358;29;20049;-89
2022/07/19 08:50:14;;;;;;;4.13;2.40;;;26.70;99.90;;;;;;4844349;29;19989;-88
2022/07/19 08:52:40;;;;;;;;;;;26.80;99.90;;;;;;4844065;29;20064;-90
2022/07/19 08:55:06;;;;;;;2.08;1.40;;;26.80;99.90;;;;;;4844071;29;19924;-88
2022/07/19 09:00:17;;;;;;;1.65;1.42;;;26.90;99.90;;;;;;4846482;29;20057;-89
2022/07/19 09:02:52;;;;;;;;;;;27.00;99.90;;;;;;4830054;29;20053;-89
2022/07/19 09:05:18;;;;;;;1.88;1.77;;;27.10;99.90;;;;;;4848277;29;20282;-88
2022/07/19 09:07:58;;;;;;;;;;;27.20;99.30;;;;;;4832595;29;20056;-89
2022/07/19 09:10:27;;;;;;;4.03;1.48;;;27.30;98.30;;;;;;4877688;29;19928;-89
2022/07/19 09:13:04;;;;;;;3.15;1.75;;;27.30;98.70;;;;;;4831931;29;20045;-89
2022/07/19 09:15:56;;;;;;;4.72;1.70;;;27.40;96.90;;;;;;4846855;29;20053;-89
2022/07/19 09:18:28;;;;;;;3.83;2.00;;;27.50;96.40;;;;;;4859591;29;20065;-89
2022/07/19 09:20:58;;;;;;;1.35;1.25;;;27.60;96.70;;;;;;4861997;29;20527;-89
2022/07/19 09:23:24;;;;;;;3.53;1.30;;;27.70;96.50;;;;;;4862389;29;20532;-89
2022/07/19 09:25:53;;;;;;;4.25;1.50;;;27.80;96.30;;;;;;4861386;29;20053;-89
2022/07/19 09:28:20;;;;;;;2.25;1.33;;;27.90;96.20;;;;;;4861852;29;20496;-89
2022/07/19 09:30:49;;;;;;;1.70;1.50;;;28.00;95.90;;;;;;4846543;29;20099;-89
2022/07/19 09:33:17;;;;;;;2.47;1.63;;;28.00;95.10;;;;;;4861906;29;20053;-89
2022/07/19 09:35:52;;;;;;;2.95;1.20;;;28.10;94.50;;;;;;4842963;29;20061;-89
2022/07/19 09:38:26;;;;;;;1.88;1.58;;;28.10;93.80;;;;;;4828877;29;20080;-89
2022/07/19 09:40:54;;;;;;;1.83;1.60;;;28.20;93.70;;;;;;4843500;29;20497;-89
2022/07/19 09:43:22;;;;;;;8.80;2.05;;;28.30;92.90;;;;;;4828537;29;20053;-89
2022/07/19 09:45:49;;;;;;;3.58;1.33;;;28.40;92.70;;;;;;4828494;29;20061;-89
2022/07/19 09:48:16;;;;;;;4.85;1.60;;;28.50;92.40;;;;;;4828967;29;20060;-89
2022/07/19 09:50:45;;;;;;;1.60;1.33;;;28.50;92.10;;;;;;4828678;29;20125;-89
2022/07/19 09:53:11;;;;;;;3.67;1.17;;;28.60;91.70;;;;;;4828234;29;20096;-89
2022/07/19 09:55:37;;;;;;;2.55;1.75;;;28.80;91.70;;;;;;4843507;29;20087;-89
2022/07/19 09:58:08;;;;;;;2.15;1.10;;;28.80;91.70;;;;;;4843307;29;20061;-89
2022/07/19 10:00:34;;;;;;;3.53;1.42;;;28.90;91.50;;;;;;4829765;29;20518;-89
2022/07/19 10:03:01;;;;;;;4.40;1.80;;;29.00;90.70;;;;;;4831336;29;20404;-89
2022/07/19 10:05:29;;;;;;;4.25;1.92;;;29.10;90.70;;;;;;4856387;29;20057;-90
2022/07/19 10:07:55;;;;;;;1.55;0.95;;;29.20;89.60;;;;;;4864996;29;20057;-89
2022/07/19 10:10:22;;;;;;;2.35;1.75;;;28.60;87.60;;;;;;4849969;29;20056;-89
2022/07/19 10:12:50;;;;;;;3.03;2.00;;;29.30;87.70;;;;;;4849168;29;20100;-90
2022/07/19 10:15:18;;;;;;;1.80;1.58;;;29.40;87.40;;;;;;4849685;29;20049;-89
2022/07/19 10:17:50;;;;;;;1.30;1.20;;;29.50;86.10;;;;;;4865260;29;20144;-89
2022/07/19 10:20:19;;;;;;;2.60;1.58;;;29.60;84.40;;;;;;4849647;29;20409;-89
2022/07/19 10:22:45;;;;;;;3.35;2.03;;;29.60;84.50;;;;;;4849442;29;20092;-89
2022/07/19 10:25:17;;;;;;;2.70;1.38;;;29.70;84.40;;;;;;4864751;29;20496;-89
2022/07/19 10:27:54;;;;;;;5.85;2.28;;;29.80;82.40;;;;;;4849838;29;20144;-88
2022/07/19 10:30:25;;;;;;;3.90;1.35;;;29.90;80.10;;;;;;4865189;29;20053;-89
2022/07/19 10:32:54;;;;;;;3.88;1.25;;;29.90;80.00;;;;;;4864435;29;20061;-90
2022/07/19 10:35:27;;;;;;;1.60;1.50;;;30.10;80.20;;;;;;4849129;29;20045;-89
2022/07/19 10:38:09;;;;;;;1.48;1.20;;;30.10;79.20;;;;;;4864617;29;20067;-89
2022/07/19 10:40:38;;;;;;;2.67;1.38;;;30.20;78.50;;;;;;4864639;29;20373;-89
2022/07/19 10:43:08;;;;;;;3.35;2.10;;;30.20;77.40;;;;;;4864059;29;20494;-89
2022/07/19 10:45:38;;;;;;;3.33;1.45;;;30.30;77.50;;;;;;4850141;29;20064;-89
2022/07/19 10:48:06;;;;;;;3.83;1.50;;;30.40;76.00;;;;;;4848659;29;20063;-88
2022/07/19 10:50:52;;;;;;;2.17;1.20;;;30.40;75.10;;;;;;4864729;29;20063;-89
2022/07/19 10:53:40;;;;;;;1.38;1.20;;;30.60;76.00;;;;;;4864699;29;20048;-89
2022/07/19 10:56:19;;;;;;;1.80;1.23;;;30.70;75.00;;;;;;4848608;29;20468;-89
2022/07/19 10:58:56;;;;;;;1.83;1.48;;;30.80;75.90;;;;;;4849193;29;20109;-89
2022/07/19 11:01:24;;;;;;;1.90;1.40;;;30.90;74.20;;;;;;4864539;29;20049;-89
2022/07/19 11:03:52;;;;;;;2.53;1.10;;;31.00;74.10;;;;;;4849113;29;20045;-89
2022/07/19 11:06:24;;;;;;;3.30;1.40;;;31.00;73.20;;;;;;4848799;29;20127;-88
2022/07/19 11:08:54;;;;;;;2.15;1.30;;;31.00;73.50;;;;;;4848940;29;20132;-89
2022/07/19 11:11:20;;;;;;;2.53;2.05;;;31.10;72.70;;;;;;4848245;29;20060;-89
2022/07/19 11:13:54;;;;;;;3.30;1.70;;;31.20;72.80;;;;;;4848880;29;20049;-89
2022/07/19 11:16:21;;;;;;;2.75;2.03;;;31.30;72.90;;;;;;4848742;29;20048;-89
2022/07/19 11:18:47;;;;;;;4.60;1.50;;;31.40;72.10;;;;;;4864180;29;20095;-89
2022/07/19 11:21:14;;;;;;;2.75;1.83;;;31.40;72.00;;;;;;4848457;29;20059;-89
2022/07/19 11:23:40;;;;;;;1.50;1.40;;;31.50;71.10;;;;;;4848832;29;20048;-89
2022/07/19 11:26:20;;;;;;;2.15;1.33;;;31.60;72.10;;;;;;4863677;29;20143;-88
2022/07/19 11:28:47;;;;;;;3.90;1.35;;;31.70;70.60;;;;;;4864014;29;20100;-89
2022/07/19 11:31:17;;;;;;;1.95;1.55;;;31.60;71.40;;;;;;4848332;29;20060;-89
2022/07/19 11:33:44;;;;;;;3.42;1.52;;;31.70;71.90;;;;;;4848193;29;20061;-89
2022/07/19 11:36:11;;;;;;;2.97;1.70;;;31.70;70.40;;;;;;4863052;29;20086;-89
2022/07/19 11:38:43;;;;;;;2.47;1.58;;;31.80;70.70;;;;;;4848123;29;20128;-88
2022/07/19 11:41:23;;;;;;;3.10;1.40;;;31.80;70.10;;;;;;4848119;29;20048;-88
2022/07/19 11:44:07;;;;;;;2.60;1.27;;;31.90;68.90;;;;;;4848870;29;20057;-89
2022/07/19 11:46:41;;;;;;;5.43;1.77;;;32.10;68.70;;;;;;4863391;29;20136;-88
2022/07/19 11:49:10;;;;;;;8.07;1.50;;;32.10;68.90;;;;;;4847942;29;20136;-89
2022/07/19 11:51:36;;;;;;;3.35;1.63;;;32.10;68.20;;;;;;4833038;29;20049;-88
2022/07/19 11:54:04;;;;;;;5.90;1.92;;;32.20;68.30;;;;;;4863214;29;20136;-89
2022/07/19 11:56:33;;;;;;;3.05;1.60;;;32.30;68.00;;;;;;4832795;29;20087;-88
2022/07/19 11:59:10;;;;;;;2.63;2.00;;;32.40;66.70;;;;;;4848062;29;20064;-92
2022/07/19 12:01:38;;;;;;;2.05;1.55;;;32.40;66.30;;;;;;4863498;29;20060;-89
2022/07/19 12:04:09;;;;;;;1.42;1.25;;;32.40;66.30;;;;;;4863031;29;20064;-90
2022/07/19 12:06:42;;;;;;;2.35;1.40;;;32.50;65.80;;;;;;4863491;29;20049;-89
2022/07/19 12:09:13;;;;;;;2.28;1.42;;;32.60;65.70;;;;;;4862895;29;20056;-89
2022/07/19 12:11:43;;;;;;;2.75;1.50;;;32.60;65.40;;;;;;4848183;29;20404;-89
2022/07/19 12:14:40;;;;;;;4.88;1.67;;;32.70;65.60;;;;;;4862875;29;20049;-89
2022/07/19 12:17:22;;;;;;;6.35;1.50;;;32.80;64.40;;;;;;4824608;29;20068;-89
2022/07/19 12:20:06;;;;;;;4.13;1.60;;;32.80;66.20;;;;;;4862519;29;20049;-89
2022/07/19 12:22:36;;;;;;;1.95;1.33;;;32.80;65.30;;;;;;4847497;29;20052;-89
2022/07/19 12:25:03;;;;;;;4.25;1.50;;;32.90;65.10;;;;;;4862941;29;20512;-89
2022/07/19 12:27:30;;;;;;;1.70;1.58;;;33.00;65.20;;;;;;4863060;29;20396;-90
2022/07/19 12:29:58;;;;;;;6.22;1.50;;;33.00;63.50;;;;;;4832589;29;20453;-89
2022/07/19 12:32:34;;;;;;;3.28;1.30;;;33.10;63.10;;;;;;4862197;29;20445;-89
2022/07/19 12:35:14;;;;;;;4.05;1.70;;;33.10;63.70;;;;;;4847430;29;20045;-89
2022/07/19 12:37:41;;;;;;;3.05;1.20;;;33.20;63.40;;;;;;4862720;29;20045;-89
2022/07/19 12:40:13;;;;;;;2.78;1.05;;;33.20;62.50;;;;;;4847155;29;20445;-89
2022/07/19 12:42:59;;;;;;;2.05;1.33;;;33.30;61.30;;;;;;4862839;29;20136;-89
2022/07/19 12:45:27;;;;;;;1.70;1.30;;;33.30;60.70;;;;;;4847094;29;20389;-89
2022/07/19 12:47:53;;;;;;;1.45;1.20;;;33.40;61.60;;;;;;4862814;29;20052;-89
2022/07/19 12:50:33;;;;;;;1.27;1.00;;;33.40;60.40;;;;;;4846986;29;20081;-89
2022/07/19 12:53:01;;;;;;;2.95;1.95;;;33.50;60.20;;;;;;4862943;29;20105;-89
2022/07/19 12:55:28;;;;;;;1.80;1.30;;;33.50;59.90;;;;;;4846704;29;20049;-89
2022/07/19 12:57:55;;;;;;;3.65;1.45;;;33.50;59.20;;;;;;4846897;29;20508;-89
2022/07/19 13:00:24;;;;;;;3.47;1.48;;;33.50;59.10;;;;;;4846858;29;20053;-89
2022/07/19 13:02:51;;;;;;;3.60;2.00;;;33.60;59.50;;;;;;4862577;29;20053;-89